72NY weather

St Marys Heliport
Niagara Falls, New York, United States

Public forecast

Using degrees Fahrenheit for public forecast. Weather courtesy of forecast.io.

Closest aviation weather report (METAR) to St Marys Heliport

Closest report is Niagara Falls International Airport, 4.6 nm (8.5 km) SE. Retrieved 2019/10/14 03:53 UTC (60 minutes ago):

KIAG 140353Z AUTO 30016G25KT 10SM OVC095 12/06 A2986 RMK AO2 PK WND 28028/0340 SLP115 T01170061

Closest aviation forecast (TAF) to St Marys Heliport

Closest forecast is Niagara Falls International Airport, 4.6 nm (8.5 km) SE. Retrieved 2019-10-14 00:34 UTC (4 hours ago):

TAF KIAG 132331Z 1400/1424 22011KT P6SM SCT250 FM140500 25008KT P6SM BKN150 FM141200 26007KT P6SM SCT090 FM141500 27011G21KT P6SM BKN060 FM142100 25010KT P6SM SCT040